Fort Nelson Airport
CYYE : now visible

Airfield :











YOU CAN JOIN US ON...

 
LOGIN :

Register | Disclaimer

   EN    FR    IT 

 









Legend :    VFR   Marginal VFR   IFR   Intensive IFR   Very Intensive IFR
Visi :
Ceiling :
>= 8 km
>= 3000ft
5 to 8 km
1000 to 3000 ft
1500m to 5 km
500 to 1000 ft
800 to 1500m
200 to 500 ft
< 800m
< 200 ft
Symbols :   Thunderstorms  Fog  Heavy snow  Heavy precipitations  Wind > 20 kt






- Airport Elevation : 1253 ft
- IATA code : YYE


CYYE - Fort Nelson

CURRENT METAR :
  • 220000Z 35013G19KT 240V010 30SM FEW090 18/M10 A2967 RMK AC1 SLP062 DENSITY ALT 2300FT

EXPIRED METARs :
  • 212300Z 31013G19KT 270V340 30SM FEW090 FEW250 18/M11 A2966 RMK AC1CI1 CI TR SLP059 DENSITY ALT 2200FT
  • 212200Z 30012G23KT 270V360 30SM FEW090 FEW250 18/M11 A2966 RMK AC1CI1 AC TR CI TR SLP058 DENSITY ALT 2200FT
  • 212100Z 30012KT 270V010 30SM FEW090 FEW250 17/M12 A2965 RMK AC1CI1 AC TR CI TR SLP057 DENSITY ALT 2200FT
  • 212000Z 29011G16KT 270V030 30SM FEW090 FEW250 16/M11 A2965 RMK AC1CI1 AC TR CI TR SLP055 DENSITY ALT 2100FT
  • 211900Z 32007G16KT 280V350 30SM FEW250 16/M10 A2965 RMK CI1 CI TR SLP055 DENSITY ALT 2000FT

TAF TAF CYYE
Valid from the 21 at 19:00 until the 22 at 07:00 UTC


211840Z 2119/2207 VRB03KT P6SM SKC
BECMG 2120/2122 30010KT SCT080 RMK NXT FCST BY 220100Z
CZEG FIR / North America



MET'MAP, your aeronautical weather chart ! - Copyright ORBIFLY December 2007 - Disclaimer

ORBIFLY MET'MAP TEAM :

Programming & Development : Alexandra Zaïnal
Original concept : Baudouin d'Aumeries
Technical & hardware support : Manuel Goepfert
Assistance : Marc-Olivier Méhu




SOURCES & CREDITS :

   NOAA       Earth
Advisory